• Join FlightAware (Why Join?)
  • Login
  • US Flag 
04:23AM EDT


 

Airport Tracker/Info


-or-


 

Live Flight TrackerFlight Track Log ✈ WJA343 ✈ 30-Apr-2012 ✈ CYLW - CYVR

Flight Track Log - Related Links

Times and Time Zones

All times are in EDT time to prevent confusion due to time zone crossing. See the WJA343 flight status page for this flight to view local times or setup timezone preferences in your user account.

Time Position Orientation Groundspeed Altitude Reporting Facility
EDT Latitude Longitude Course Direction KTS MPH feet Rate Location/Type
10:15AM 49.9146 -119.5788 56° Northeast  Level FlightAware Approximate
10:15AM 50.0000 -119.3833 360° North 160 184 4,700  Level Vancouver Center
10:16AM 50.0667 -119.3833 23° Northeast 200 230 6,700 2,340 Climbing Vancouver Center
10:17AM 50.1167 -119.3500 283° West 230 265 9,400 2,100 Climbing Vancouver Center
10:18AM 50.1333 -119.4667 257° West 280 322 11,000 2,340 Climbing Vancouver Center
10:19AM 50.1167 -119.5833 251° West 330 380 14,100 3,060 Climbing Vancouver Center
10:20AM 50.0833 -119.7333 240° Southwest 340 391 17,200 3,780 Climbing Vancouver Center
10:21AM 50.0333 -119.8667 259° West 350 403 21,700 3,360 Climbing Vancouver Center
10:22AM 50.0167 -120.0000 253° West 340 391 24,000 1,140 Climbing Vancouver Center
10:23AM 49.9833 -120.1667 240° Southwest 340 391 24,000  Level Vancouver Center
10:24AM 49.9333 -120.3000 249° West 340 391 24,000  Level Vancouver Center
10:25AM 49.9000 -120.4333 259° West 340 391 24,000  Level Vancouver Center
10:26AM 49.8833 -120.5667 246° West 350 403 24,000  Level Vancouver Center
10:27AM 49.8500 -120.6833 245° Southwest 340 391 24,000  Level Vancouver Center
10:28AM 49.8000 -120.8500 249° West 350 403 24,000  Level Vancouver Center
10:29AM 49.7667 -120.9833 251° West 350 403 24,000  Level Vancouver Center
10:30AM 49.7333 -121.1333 259° West 350 403 24,000  Level Vancouver Center
10:31AM 49.7167 -121.2667 240° Southwest 350 403 24,000  Level Vancouver Center
10:32AM 49.6667 -121.4000 251° West 350 403 24,000  Level Vancouver Center
10:33AM 49.6333 -121.5500 249° West 350 403 24,000  Level Vancouver Center
10:34AM 49.6000 -121.6833 249° West 340 391 24,000  Level Vancouver Center
10:35AM 49.5667 -121.8167 240° Southwest 340 391 24,000 -60 Level Vancouver Center
10:36AM 49.5167 -121.9500 259° West 340 391 23,900 -900 Descending Vancouver Center
10:37AM 49.5000 -122.0833 232° Southwest 320 368 22,300 -1,620 Descending Vancouver Center
10:38AM 49.4500 -122.1833 243° Southwest 320 368 20,700 -1,800 Descending Vancouver Center
10:39AM 49.4000 -122.3333 233° Southwest 340 391 18,700 -2,040 Descending Vancouver Center
10:40AM 49.3500 -122.4333 233° Southwest 360 414 16,700 -2,040 Descending Vancouver Center
10:41AM 49.2833 -122.5667 253° West 370 426 14,700 -1,620 Descending Vancouver Center
10:42AM 49.2500 -122.7333 256° West 340 391 13,500 -1,080 Descending Vancouver Center
10:43AM 49.2333 -122.8333 270° West 300 345 12,600 -900 Descending Vancouver Center
10:44AM 49.2333 -122.9500 270° West 260 299 11,700 -1,080 Descending Vancouver Center
10:45AM 49.2333 -123.0500 282° West 250 288 10,500 -1,200 Descending Vancouver Center
10:46AM 49.2500 -123.1667 291° West 240 276 9,400 -1,200 Descending Vancouver Center
10:47AM 49.2667 -123.2333 270° West 240 276 8,100 -1,440 Descending Vancouver Center
10:48AM 49.2667 -123.3667 291° West 240 276 6,600 -1,560 Descending Vancouver Center
10:49AM 49.2833 -123.4333 198° South 230 265 5,000 -1,620 Descending Vancouver Center
10:50AM 49.2167 -123.4667 104° East 210 242 3,400 -1,380 Descending Vancouver Center
10:51AM 49.2000 -123.3667 101° East 210 242 2,300 -960 Descending Vancouver Center
10:53AM 49.1833 -123.2333 101° East 130 150 600 -900 Descending Vancouver Center